sensor_id;sensor_type;location;lat;lon;timestamp;P1;durP1;ratioP1;P2;durP2;ratioP2
7128;SDS011;3606;52.930;8.644;2023-04-01T00:02:24;13.90;;;9.27;;
7128;SDS011;3606;52.930;8.644;2023-04-01T00:04:50;12.63;;;9.80;;
7128;SDS011;3606;52.930;8.644;2023-04-01T00:07:15;14.47;;;9.10;;
7128;SDS011;3606;52.930;8.644;2023-04-01T00:09:41;15.57;;;9.67;;
7128;SDS011;3606;52.930;8.644;2023-04-01T00:12:06;16.20;;;9.70;;
7128;SDS011;3606;52.930;8.644;2023-04-01T00:14:32;16.03;;;10.47;;
7128;SDS011;3606;52.930;8.644;2023-04-01T00:16:57;12.43;;;9.27;;
7128;SDS011;3606;52.930;8.644;2023-04-01T00:19:23;15.57;;;9.87;;
7128;SDS011;3606;52.930;8.644;2023-04-01T00:21:48;14.87;;;9.77;;
7128;SDS011;3606;52.930;8.644;2023-04-01T00:24:14;15.33;;;9.30;;
7128;SDS011;3606;52.930;8.644;2023-04-01T00:26:40;16.53;;;10.50;;
7128;SDS011;3606;52.930;8.644;2023-04-01T00:29:07;16.67;;;11.60;;
7128;SDS011;3606;52.930;8.644;2023-04-01T00:31:33;38.97;;;20.90;;
7128;SDS011;3606;52.930;8.644;2023-04-01T00:33:58;23.17;;;13.67;;
7128;SDS011;3606;52.930;8.644;2023-04-01T00:36:24;17.63;;;11.93;;
7128;SDS011;3606;52.930;8.644;2023-04-01T00:38:50;12.30;;;9.63;;
7128;SDS011;3606;52.930;8.644;2023-04-01T00:41:16;14.13;;;10.10;;
7128;SDS011;3606;52.930;8.644;2023-04-01T00:43:43;14.87;;;10.00;;
7128;SDS011;3606;52.930;8.644;2023-04-01T00:46:11;18.30;;;10.23;;
7128;SDS011;3606;52.930;8.644;2023-04-01T00:48:38;15.27;;;9.77;;
7128;SDS011;3606;52.930;8.644;2023-04-01T00:51:07;17.00;;;9.53;;
7128;SDS011;3606;52.930;8.644;2023-04-01T00:53:50;14.93;;;10.10;;
7128;SDS011;3606;52.930;8.644;2023-04-01T00:56:18;18.20;;;9.93;;
7128;SDS011;3606;52.930;8.644;2023-04-01T00:58:48;13.70;;;10.37;;
7128;SDS011;3606;52.930;8.644;2023-04-01T01:01:20;12.10;;;9.13;;
7128;SDS011;3606;52.930;8.644;2023-04-01T01:03:47;20.87;;;9.77;;
7128;SDS011;3606;52.930;8.644;2023-04-01T01:11:26;11.50;;;9.73;;
7128;SDS011;3606;52.930;8.644;2023-04-01T01:14:07;15.00;;;10.27;;
7128;SDS011;3606;52.930;8.644;2023-04-01T01:16:58;12.47;;;9.37;;
7128;SDS011;3606;52.930;8.644;2023-04-01T01:31:33;13.60;;;9.10;;
7128;SDS011;3606;52.930;8.644;2023-04-01T01:36:56;11.93;;;9.60;;
7128;SDS011;3606;52.930;8.644;2023-04-01T01:39:26;14.53;;;9.73;;
7128;SDS011;3606;52.930;8.644;2023-04-01T01:41:56;13.77;;;9.87;;
7128;SDS011;3606;52.930;8.644;2023-04-01T01:44:24;12.07;;;9.10;;
7128;SDS011;3606;52.930;8.644;2023-04-01T01:46:53;13.40;;;9.53;;
7128;SDS011;3606;52.930;8.644;2023-04-01T01:49:18;13.33;;;9.43;;
7128;SDS011;3606;52.930;8.644;2023-04-01T01:51:45;14.80;;;9.73;;
7128;SDS011;3606;52.930;8.644;2023-04-01T01:54:14;16.33;;;10.10;;
7128;SDS011;3606;52.930;8.644;2023-04-01T01:56:41;18.20;;;10.73;;
7128;SDS011;3606;52.930;8.644;2023-04-01T01:59:10;12.80;;;10.07;;
7128;SDS011;3606;52.930;8.644;2023-04-01T02:01:39;14.30;;;9.10;;
7128;SDS011;3606;52.930;8.644;2023-04-01T02:04:08;13.00;;;9.47;;
7128;SDS011;3606;52.930;8.644;2023-04-01T02:06:37;14.13;;;10.03;;
7128;SDS011;3606;52.930;8.644;2023-04-01T02:09:07;12.73;;;9.63;;
7128;SDS011;3606;52.930;8.644;2023-04-01T02:11:43;14.17;;;9.83;;
7128;SDS011;3606;52.930;8.644;2023-04-01T02:14:14;14.20;;;9.60;;
7128;SDS011;3606;52.930;8.644;2023-04-01T02:19:12;13.17;;;9.10;;
7128;SDS011;3606;52.930;8.644;2023-04-01T02:21:38;12.07;;;8.60;;
7128;SDS011;3606;52.930;8.644;2023-04-01T02:24:08;11.97;;;9.03;;
7128;SDS011;3606;52.930;8.644;2023-04-01T02:26:37;11.13;;;8.73;;
7128;SDS011;3606;52.930;8.644;2023-04-01T02:29:05;12.27;;;9.33;;
7128;SDS011;3606;52.930;8.644;2023-04-01T02:31:33;13.80;;;9.47;;
7128;SDS011;3606;52.930;8.644;2023-04-01T02:33:59;13.67;;;9.63;;
7128;SDS011;3606;52.930;8.644;2023-04-01T02:36:26;12.67;;;9.20;;
7128;SDS011;3606;52.930;8.644;2023-04-01T02:38:52;11.07;;;9.00;;
7128;SDS011;3606;52.930;8.644;2023-04-01T02:41:20;11.37;;;8.80;;
7128;SDS011;3606;52.930;8.644;2023-04-01T02:43:46;12.23;;;8.77;;
7128;SDS011;3606;52.930;8.644;2023-04-01T02:46:11;13.60;;;8.60;;
7128;SDS011;3606;52.930;8.644;2023-04-01T02:48:37;17.57;;;9.40;;
7128;SDS011;3606;52.930;8.644;2023-04-01T02:51:02;12.47;;;8.90;;
7128;SDS011;3606;52.930;8.644;2023-04-01T02:53:28;12.07;;;9.37;;
7128;SDS011;3606;52.930;8.644;2023-04-01T02:55:54;11.23;;;8.27;;
7128;SDS011;3606;52.930;8.644;2023-04-01T02:58:20;12.43;;;8.73;;
7128;SDS011;3606;52.930;8.644;2023-04-01T03:00:46;12.43;;;9.13;;
7128;SDS011;3606;52.930;8.644;2023-04-01T03:03:12;12.60;;;8.13;;
7128;SDS011;3606;52.930;8.644;2023-04-01T03:05:38;13.87;;;8.23;;
7128;SDS011;3606;52.930;8.644;2023-04-01T03:08:04;12.07;;;8.10;;
7128;SDS011;3606;52.930;8.644;2023-04-01T03:10:31;12.60;;;7.97;;
7128;SDS011;3606;52.930;8.644;2023-04-01T03:12:56;11.40;;;8.10;;
7128;SDS011;3606;52.930;8.644;2023-04-01T03:15:22;13.67;;;8.37;;
7128;SDS011;3606;52.930;8.644;2023-04-01T03:17:47;13.23;;;8.07;;
7128;SDS011;3606;52.930;8.644;2023-04-01T03:20:13;10.43;;;8.30;;
7128;SDS011;3606;52.930;8.644;2023-04-01T03:22:40;12.33;;;8.70;;
7128;SDS011;3606;52.930;8.644;2023-04-01T03:25:06;11.63;;;8.50;;
7128;SDS011;3606;52.930;8.644;2023-04-01T03:27:33;10.97;;;8.60;;
7128;SDS011;3606;52.930;8.644;2023-04-01T03:30:00;11.40;;;7.90;;
7128;SDS011;3606;52.930;8.644;2023-04-01T03:32:26;13.47;;;8.00;;
7128;SDS011;3606;52.930;8.644;2023-04-01T03:34:52;13.87;;;8.70;;
7128;SDS011;3606;52.930;8.644;2023-04-01T03:37:21;13.17;;;7.57;;
7128;SDS011;3606;52.930;8.644;2023-04-01T03:39:47;13.47;;;8.17;;
7128;SDS011;3606;52.930;8.644;2023-04-01T03:42:13;13.63;;;7.97;;
7128;SDS011;3606;52.930;8.644;2023-04-01T03:44:38;11.67;;;7.30;;
7128;SDS011;3606;52.930;8.644;2023-04-01T03:47:07;12.23;;;8.20;;
7128;SDS011;3606;52.930;8.644;2023-04-01T03:49:34;13.63;;;8.17;;
7128;SDS011;3606;52.930;8.644;2023-04-01T03:51:59;14.50;;;7.53;;
7128;SDS011;3606;52.930;8.644;2023-04-01T03:54:28;11.07;;;7.80;;
7128;SDS011;3606;52.930;8.644;2023-04-01T03:56:53;9.70;;;7.40;;
7128;SDS011;3606;52.930;8.644;2023-04-01T03:59:20;12.37;;;8.00;;
7128;SDS011;3606;52.930;8.644;2023-04-01T04:01:46;10.03;;;7.30;;
7128;SDS011;3606;52.930;8.644;2023-04-01T04:04:12;9.17;;;6.73;;
7128;SDS011;3606;52.930;8.644;2023-04-01T04:06:39;7.63;;;6.13;;
7128;SDS011;3606;52.930;8.644;2023-04-01T04:09:05;10.43;;;7.10;;
7128;SDS011;3606;52.930;8.644;2023-04-01T04:11:31;11.07;;;6.67;;
7128;SDS011;3606;52.930;8.644;2023-04-01T04:13:57;10.47;;;7.03;;
7128;SDS011;3606;52.930;8.644;2023-04-01T04:16:23;8.60;;;6.73;;
7128;SDS011;3606;52.930;8.644;2023-04-01T04:18:49;8.77;;;6.53;;
7128;SDS011;3606;52.930;8.644;2023-04-01T04:21:16;9.80;;;7.53;;
7128;SDS011;3606;52.930;8.644;2023-04-01T04:23:42;8.67;;;6.57;;
7128;SDS011;3606;52.930;8.644;2023-04-01T04:26:08;10.17;;;6.37;;
7128;SDS011;3606;52.930;8.644;2023-04-01T04:28:37;7.57;;;5.97;;
7128;SDS011;3606;52.930;8.644;2023-04-01T04:31:03;8.20;;;6.20;;
7128;SDS011;3606;52.930;8.644;2023-04-01T04:33:30;7.50;;;5.83;;
7128;SDS011;3606;52.930;8.644;2023-04-01T04:35:56;6.83;;;5.63;;
7128;SDS011;3606;52.930;8.644;2023-04-01T04:38:22;8.27;;;5.53;;
7128;SDS011;3606;52.930;8.644;2023-04-01T04:40:48;7.70;;;5.50;;
7128;SDS011;3606;52.930;8.644;2023-04-01T04:43:14;7.97;;;5.70;;
7128;SDS011;3606;52.930;8.644;2023-04-01T04:45:41;7.50;;;5.40;;
7128;SDS011;3606;52.930;8.644;2023-04-01T04:48:13;12.33;;;5.07;;
7128;SDS011;3606;52.930;8.644;2023-04-01T04:50:43;8.57;;;5.23;;
7128;SDS011;3606;52.930;8.644;2023-04-01T04:53:10;10.60;;;5.07;;
7128;SDS011;3606;52.930;8.644;2023-04-01T04:55:37;6.33;;;5.50;;
7128;SDS011;3606;52.930;8.644;2023-04-01T04:58:02;8.07;;;5.33;;
7128;SDS011;3606;52.930;8.644;2023-04-01T05:00:28;6.90;;;5.23;;
7128;SDS011;3606;52.930;8.644;2023-04-01T05:02:53;7.67;;;5.13;;
7128;SDS011;3606;52.930;8.644;2023-04-01T05:05:19;6.67;;;5.00;;
7128;SDS011;3606;52.930;8.644;2023-04-01T05:07:45;6.67;;;4.77;;
7128;SDS011;3606;52.930;8.644;2023-04-01T05:10:10;5.47;;;4.90;;
7128;SDS011;3606;52.930;8.644;2023-04-01T05:12:36;6.53;;;5.00;;
7128;SDS011;3606;52.930;8.644;2023-04-01T05:15:04;6.73;;;5.00;;
7128;SDS011;3606;52.930;8.644;2023-04-01T05:17:30;6.30;;;5.60;;
7128;SDS011;3606;52.930;8.644;2023-04-01T05:19:56;8.33;;;4.73;;
7128;SDS011;3606;52.930;8.644;2023-04-01T05:22:22;6.83;;;5.37;;
7128;SDS011;3606;52.930;8.644;2023-04-01T05:24:48;6.27;;;5.47;;
7128;SDS011;3606;52.930;8.644;2023-04-01T05:27:14;9.37;;;6.00;;
7128;SDS011;3606;52.930;8.644;2023-04-01T05:29:40;9.13;;;5.90;;
7128;SDS011;3606;52.930;8.644;2023-04-01T05:32:05;10.33;;;5.67;;
7128;SDS011;3606;52.930;8.644;2023-04-01T05:34:31;7.90;;;5.00;;
7128;SDS011;3606;52.930;8.644;2023-04-01T05:36:57;7.40;;;5.57;;
7128;SDS011;3606;52.930;8.644;2023-04-01T05:39:22;9.20;;;5.33;;
7128;SDS011;3606;52.930;8.644;2023-04-01T05:41:48;7.07;;;5.17;;
7128;SDS011;3606;52.930;8.644;2023-04-01T05:44:14;8.17;;;5.50;;
7128;SDS011;3606;52.930;8.644;2023-04-01T05:46:39;7.77;;;5.43;;
7128;SDS011;3606;52.930;8.644;2023-04-01T05:49:05;6.40;;;5.37;;
7128;SDS011;3606;52.930;8.644;2023-04-01T05:51:31;6.17;;;4.93;;
7128;SDS011;3606;52.930;8.644;2023-04-01T05:53:57;7.43;;;5.27;;
7128;SDS011;3606;52.930;8.644;2023-04-01T05:56:22;8.63;;;5.83;;
7128;SDS011;3606;52.930;8.644;2023-04-01T05:58:50;7.50;;;5.87;;
7128;SDS011;3606;52.930;8.644;2023-04-01T06:01:18;7.57;;;5.47;;
7128;SDS011;3606;52.930;8.644;2023-04-01T06:03:44;7.00;;;5.20;;
7128;SDS011;3606;52.930;8.644;2023-04-01T06:06:14;6.63;;;5.20;;
7128;SDS011;3606;52.930;8.644;2023-04-01T06:08:44;8.70;;;5.93;;
7128;SDS011;3606;52.930;8.644;2023-04-01T06:22:02;7.93;;;4.60;;
7128;SDS011;3606;52.930;8.644;2023-04-01T06:24:47;5.63;;;4.33;;
7128;SDS011;3606;52.930;8.644;2023-04-01T06:29:49;7.67;;;4.30;;
7128;SDS011;3606;52.930;8.644;2023-04-01T06:46:35;5.87;;;4.03;;
7128;SDS011;3606;52.930;8.644;2023-04-01T06:49:21;6.50;;;3.97;;
7128;SDS011;3606;52.930;8.644;2023-04-01T06:54:52;4.07;;;3.67;;
7128;SDS011;3606;52.930;8.644;2023-04-01T06:57:28;4.43;;;3.53;;
7128;SDS011;3606;52.930;8.644;2023-04-01T06:59:56;4.20;;;3.17;;
7128;SDS011;3606;52.930;8.644;2023-04-01T07:04:53;3.23;;;2.87;;
7128;SDS011;3606;52.930;8.644;2023-04-01T07:07:40;4.33;;;3.17;;
7128;SDS011;3606;52.930;8.644;2023-04-01T07:10:17;2.87;;;2.37;;
7128;SDS011;3606;52.930;8.644;2023-04-01T07:12:58;3.10;;;2.80;;
7128;SDS011;3606;52.930;8.644;2023-04-01T07:15:34;4.60;;;2.50;;
7128;SDS011;3606;52.930;8.644;2023-04-01T07:18:18;3.77;;;2.73;;
7128;SDS011;3606;52.930;8.644;2023-04-01T07:20:49;3.87;;;2.70;;
7128;SDS011;3606;52.930;8.644;2023-04-01T07:23:22;2.73;;;1.97;;
7128;SDS011;3606;52.930;8.644;2023-04-01T07:25:52;4.77;;;2.23;;
7128;SDS011;3606;52.930;8.644;2023-04-01T07:28:21;3.30;;;2.20;;
7128;SDS011;3606;52.930;8.644;2023-04-01T07:33:16;2.13;;;2.03;;
7128;SDS011;3606;52.930;8.644;2023-04-01T07:41:44;2.40;;;2.13;;
7128;SDS011;3606;52.930;8.644;2023-04-01T07:47:09;3.20;;;1.90;;
7128;SDS011;3606;52.930;8.644;2023-04-01T07:50:02;6.33;;;1.90;;
7128;SDS011;3606;52.930;8.644;2023-04-01T07:55:27;2.70;;;2.00;;
7128;SDS011;3606;52.930;8.644;2023-04-01T07:58:02;2.80;;;1.60;;
7128;SDS011;3606;52.930;8.644;2023-04-01T08:00:46;3.03;;;2.30;;
7128;SDS011;3606;52.930;8.644;2023-04-01T08:06:44;2.00;;;1.83;;
7128;SDS011;3606;52.930;8.644;2023-04-01T08:19:56;1.90;;;1.70;;
7128;SDS011;3606;52.930;8.644;2023-04-01T08:22:52;2.00;;;1.80;;
7128;SDS011;3606;52.930;8.644;2023-04-01T08:25:24;1.67;;;1.57;;
7128;SDS011;3606;52.930;8.644;2023-04-01T08:28:03;2.13;;;1.57;;
7128;SDS011;3606;52.930;8.644;2023-04-01T08:30:47;2.97;;;1.60;;
7128;SDS011;3606;52.930;8.644;2023-04-01T08:33:19;1.50;;;1.40;;
7128;SDS011;3606;52.930;8.644;2023-04-01T08:38:36;1.97;;;1.70;;
7128;SDS011;3606;52.930;8.644;2023-04-01T08:41:21;1.63;;;1.53;;
7128;SDS011;3606;52.930;8.644;2023-04-01T08:55:47;1.70;;;1.10;;
7128;SDS011;3606;52.930;8.644;2023-04-01T09:15:01;1.17;;;1.07;;
7128;SDS011;3606;52.930;8.644;2023-04-01T09:29:18;1.03;;;1.03;;
7128;SDS011;3606;52.930;8.644;2023-04-01T09:32:18;0.97;;;0.93;;
7128;SDS011;3606;52.930;8.644;2023-04-01T09:42:56;2.90;;;1.20;;
7128;SDS011;3606;52.930;8.644;2023-04-01T09:45:48;1.30;;;1.20;;
7128;SDS011;3606;52.930;8.644;2023-04-01T09:48:48;2.30;;;1.07;;
7128;SDS011;3606;52.930;8.644;2023-04-01T09:51:34;0.90;;;0.90;;
7128;SDS011;3606;52.930;8.644;2023-04-01T10:00:20;1.10;;;1.00;;
7128;SDS011;3606;52.930;8.644;2023-04-01T10:31:28;1.70;;;1.60;;
7128;SDS011;3606;52.930;8.644;2023-04-01T10:48:13;2.47;;;2.00;;
7128;SDS011;3606;52.930;8.644;2023-04-01T10:51:01;2.87;;;2.03;;
7128;SDS011;3606;52.930;8.644;2023-04-01T10:53:38;3.37;;;2.03;;
7128;SDS011;3606;52.930;8.644;2023-04-01T11:08:23;2.30;;;2.10;;
7128;SDS011;3606;52.930;8.644;2023-04-01T11:31:29;0.53;;;0.53;;
7128;SDS011;3606;52.930;8.644;2023-04-01T11:39:48;0.80;;;0.80;;
7128;SDS011;3606;52.930;8.644;2023-04-01T11:56:18;1.13;;;1.10;;
7128;SDS011;3606;52.930;8.644;2023-04-01T12:07:08;0.90;;;0.90;;
7128;SDS011;3606;52.930;8.644;2023-04-01T12:12:39;1.13;;;1.07;;
7128;SDS011;3606;52.930;8.644;2023-04-01T12:17:53;1.83;;;1.00;;
7128;SDS011;3606;52.930;8.644;2023-04-01T12:37:21;1.23;;;1.13;;
7128;SDS011;3606;52.930;8.644;2023-04-01T12:59:28;1.10;;;1.10;;
7128;SDS011;3606;52.930;8.644;2023-04-01T13:02:11;1.70;;;1.60;;
7128;SDS011;3606;52.930;8.644;2023-04-01T13:10:27;1.47;;;1.37;;
7128;SDS011;3606;52.930;8.644;2023-04-01T13:13:15;1.23;;;1.13;;
7128;SDS011;3606;52.930;8.644;2023-04-01T13:27:17;1.33;;;1.23;;
7128;SDS011;3606;52.930;8.644;2023-04-01T13:35:34;1.37;;;1.27;;
7128;SDS011;3606;52.930;8.644;2023-04-01T13:41:15;1.30;;;1.20;;
7128;SDS011;3606;52.930;8.644;2023-04-01T14:08:04;0.77;;;0.77;;
7128;SDS011;3606;52.930;8.644;2023-04-01T14:28:46;1.10;;;1.10;;
7128;SDS011;3606;52.930;8.644;2023-04-01T14:34:06;0.93;;;0.93;;
7128;SDS011;3606;52.930;8.644;2023-04-01T14:37:07;1.07;;;1.07;;
7128;SDS011;3606;52.930;8.644;2023-04-01T14:48:27;1.37;;;1.27;;
7128;SDS011;3606;52.930;8.644;2023-04-01T14:51:28;0.80;;;0.80;;
7128;SDS011;3606;52.930;8.644;2023-04-01T14:54:08;0.90;;;0.90;;
7128;SDS011;3606;52.930;8.644;2023-04-01T14:56:48;1.27;;;1.17;;
7128;SDS011;3606;52.930;8.644;2023-04-01T15:12:32;1.80;;;1.60;;
7128;SDS011;3606;52.930;8.644;2023-04-01T15:15:12;1.37;;;1.27;;
7128;SDS011;3606;52.930;8.644;2023-04-01T15:20:19;3.33;;;1.70;;
7128;SDS011;3606;52.930;8.644;2023-04-01T15:26:13;1.17;;;1.07;;
7128;SDS011;3606;52.930;8.644;2023-04-01T15:28:56;1.77;;;1.63;;
7128;SDS011;3606;52.930;8.644;2023-04-01T15:31:30;1.93;;;1.70;;
7128;SDS011;3606;52.930;8.644;2023-04-01T15:34:19;1.80;;;1.67;;
7128;SDS011;3606;52.930;8.644;2023-04-01T15:36:56;3.37;;;2.00;;
7128;SDS011;3606;52.930;8.644;2023-04-01T15:45:14;2.23;;;2.03;;
7128;SDS011;3606;52.930;8.644;2023-04-01T15:47:59;2.40;;;2.03;;
7128;SDS011;3606;52.930;8.644;2023-04-01T15:53:06;2.50;;;2.27;;
7128;SDS011;3606;52.930;8.644;2023-04-01T15:56:11;2.27;;;1.93;;
7128;SDS011;3606;52.930;8.644;2023-04-01T16:15:03;3.43;;;2.33;;
7128;SDS011;3606;52.930;8.644;2023-04-01T16:31:45;3.23;;;2.37;;
7128;SDS011;3606;52.930;8.644;2023-04-01T16:37:10;2.93;;;2.30;;
7128;SDS011;3606;52.930;8.644;2023-04-01T16:39:52;3.93;;;2.70;;
7128;SDS011;3606;52.930;8.644;2023-04-01T16:45:19;2.77;;;2.40;;
7128;SDS011;3606;52.930;8.644;2023-04-01T16:47:56;3.77;;;2.87;;
7128;SDS011;3606;52.930;8.644;2023-04-01T16:50:39;3.20;;;2.70;;
7128;SDS011;3606;52.930;8.644;2023-04-01T16:53:17;3.07;;;2.50;;
7128;SDS011;3606;52.930;8.644;2023-04-01T16:56:02;2.70;;;2.50;;
7128;SDS011;3606;52.930;8.644;2023-04-01T17:01:29;2.73;;;2.30;;
7128;SDS011;3606;52.930;8.644;2023-04-01T17:05:04;2.57;;;2.33;;
7128;SDS011;3606;52.930;8.644;2023-04-01T17:09:51;3.80;;;2.37;;
7128;SDS011;3606;52.930;8.644;2023-04-01T17:15:26;2.70;;;2.20;;
7128;SDS011;3606;52.930;8.644;2023-04-01T17:20:42;3.07;;;2.43;;
7128;SDS011;3606;52.930;8.644;2023-04-01T17:23:23;2.60;;;2.23;;
7128;SDS011;3606;52.930;8.644;2023-04-01T17:34:31;2.40;;;2.20;;
7128;SDS011;3606;52.930;8.644;2023-04-01T17:43:08;2.87;;;2.60;;
7128;SDS011;3606;52.930;8.644;2023-04-01T17:45:55;2.93;;;2.30;;
7128;SDS011;3606;52.930;8.644;2023-04-01T17:51:07;8.93;;;2.80;;
7128;SDS011;3606;52.930;8.644;2023-04-01T17:54:18;3.73;;;3.43;;
7128;SDS011;3606;52.930;8.644;2023-04-01T17:59:44;6.27;;;3.40;;
7128;SDS011;3606;52.930;8.644;2023-04-01T18:02:36;6.37;;;3.40;;
7128;SDS011;3606;52.930;8.644;2023-04-01T18:08:26;5.90;;;3.43;;
7128;SDS011;3606;52.930;8.644;2023-04-01T18:13:59;6.33;;;3.93;;
7128;SDS011;3606;52.930;8.644;2023-04-01T18:16:52;5.30;;;4.13;;
7128;SDS011;3606;52.930;8.644;2023-04-01T18:25:12;5.53;;;3.63;;
7128;SDS011;3606;52.930;8.644;2023-04-01T18:27:41;5.53;;;4.17;;
7128;SDS011;3606;52.930;8.644;2023-04-01T18:30:15;5.80;;;4.40;;
7128;SDS011;3606;52.930;8.644;2023-04-01T18:39:19;5.67;;;4.23;;
7128;SDS011;3606;52.930;8.644;2023-04-01T18:41:47;6.07;;;4.33;;
7128;SDS011;3606;52.930;8.644;2023-04-01T18:47:13;8.50;;;4.93;;
7128;SDS011;3606;52.930;8.644;2023-04-01T18:49:53;7.97;;;4.87;;
7128;SDS011;3606;52.930;8.644;2023-04-01T18:52:41;6.63;;;4.57;;
7128;SDS011;3606;52.930;8.644;2023-04-01T19:01:05;7.77;;;4.60;;
7128;SDS011;3606;52.930;8.644;2023-04-01T19:03:53;6.90;;;5.03;;
7128;SDS011;3606;52.930;8.644;2023-04-01T19:15:07;9.07;;;5.23;;
7128;SDS011;3606;52.930;8.644;2023-04-01T19:25:49;6.67;;;4.53;;
7128;SDS011;3606;52.930;8.644;2023-04-01T19:28:31;5.67;;;4.83;;
7128;SDS011;3606;52.930;8.644;2023-04-01T19:36:56;8.27;;;4.70;;
7128;SDS011;3606;52.930;8.644;2023-04-01T19:50:52;5.63;;;4.00;;
7128;SDS011;3606;52.930;8.644;2023-04-01T19:58:32;7.57;;;4.60;;
7128;SDS011;3606;52.930;8.644;2023-04-01T20:01:06;7.33;;;3.80;;
7128;SDS011;3606;52.930;8.644;2023-04-01T20:03:54;6.90;;;4.93;;
7128;SDS011;3606;52.930;8.644;2023-04-01T20:09:08;6.67;;;4.90;;
7128;SDS011;3606;52.930;8.644;2023-04-01T20:12:00;6.47;;;4.40;;
7128;SDS011;3606;52.930;8.644;2023-04-01T20:14:51;9.43;;;4.43;;
7128;SDS011;3606;52.930;8.644;2023-04-01T20:20:03;6.40;;;4.47;;
7128;SDS011;3606;52.930;8.644;2023-04-01T20:25:33;9.07;;;5.33;;
7128;SDS011;3606;52.930;8.644;2023-04-01T20:39:32;8.73;;;5.80;;
7128;SDS011;3606;52.930;8.644;2023-04-01T20:44:49;7.97;;;5.43;;
7128;SDS011;3606;52.930;8.644;2023-04-01T20:53:04;8.17;;;6.03;;
7128;SDS011;3606;52.930;8.644;2023-04-01T21:06:58;9.33;;;5.70;;
7128;SDS011;3606;52.930;8.644;2023-04-01T21:18:15;7.10;;;5.57;;
7128;SDS011;3606;52.930;8.644;2023-04-01T21:31:49;9.47;;;5.10;;
7128;SDS011;3606;52.930;8.644;2023-04-01T21:34:42;6.07;;;4.57;;
7128;SDS011;3606;52.930;8.644;2023-04-01T22:02:24;5.97;;;4.03;;
7128;SDS011;3606;52.930;8.644;2023-04-01T22:05:20;7.63;;;4.30;;
7128;SDS011;3606;52.930;8.644;2023-04-01T22:11:04;5.73;;;4.30;;
7128;SDS011;3606;52.930;8.644;2023-04-01T22:16:39;8.63;;;4.43;;
7128;SDS011;3606;52.930;8.644;2023-04-01T22:19:19;5.60;;;4.00;;
7128;SDS011;3606;52.930;8.644;2023-04-01T22:22:04;5.63;;;4.37;;
7128;SDS011;3606;52.930;8.644;2023-04-01T22:40:42;5.97;;;3.50;;
7128;SDS011;3606;52.930;8.644;2023-04-01T22:43:17;4.47;;;3.27;;
7128;SDS011;3606;52.930;8.644;2023-04-01T22:45:57;5.23;;;3.37;;
7128;SDS011;3606;52.930;8.644;2023-04-01T22:48:47;5.23;;;3.73;;
7128;SDS011;3606;52.930;8.644;2023-04-01T22:54:28;8.83;;;3.83;;
7128;SDS011;3606;52.930;8.644;2023-04-01T22:56:59;6.43;;;3.77;;
7128;SDS011;3606;52.930;8.644;2023-04-01T22:59:55;3.73;;;3.20;;
7128;SDS011;3606;52.930;8.644;2023-04-01T23:02:36;4.80;;;3.20;;
7128;SDS011;3606;52.930;8.644;2023-04-01T23:05:04;5.27;;;3.50;;
7128;SDS011;3606;52.930;8.644;2023-04-01T23:12:51;7.03;;;3.37;;
7128;SDS011;3606;52.930;8.644;2023-04-01T23:15:22;8.37;;;3.40;;
7128;SDS011;3606;52.930;8.644;2023-04-01T23:23:41;4.80;;;3.40;;
7128;SDS011;3606;52.930;8.644;2023-04-01T23:26:10;4.37;;;2.87;;
7128;SDS011;3606;52.930;8.644;2023-04-01T23:28:43;6.33;;;3.27;;
7128;SDS011;3606;52.930;8.644;2023-04-01T23:31:24;3.37;;;2.87;;
7128;SDS011;3606;52.930;8.644;2023-04-01T23:33:56;5.00;;;2.67;;
7128;SDS011;3606;52.930;8.644;2023-04-01T23:36:50;4.77;;;2.47;;
7128;SDS011;3606;52.930;8.644;2023-04-01T23:39:32;4.77;;;2.67;;
7128;SDS011;3606;52.930;8.644;2023-04-01T23:42:21;2.60;;;2.40;;
7128;SDS011;3606;52.930;8.644;2023-04-01T23:44:49;4.07;;;2.37;;
7128;SDS011;3606;52.930;8.644;2023-04-01T23:47:18;4.30;;;2.60;;
7128;SDS011;3606;52.930;8.644;2023-04-01T23:49:53;3.10;;;1.87;;
7128;SDS011;3606;52.930;8.644;2023-04-01T23:52:23;3.07;;;2.10;;
7128;SDS011;3606;52.930;8.644;2023-04-01T23:55:03;2.77;;;2.10;;
